Time;durP1;ratioP1;P1;durP2;ratioP2;P2;SDS_P1;SDS_P2;PMS_P1;PMS_P2;Temp;Humidity;BMP_temperature;BMP_pressure;BME280_temperature;BME280_humidity;BME280_pressure;Samples;Min_cycle;Max_cycle;Signal;HPM_P1;HPM_P2
2023/12/15 00:00:27;;;;;;;16.08;9.45;;;6.40;99.90;;;;;;5015165;28;20136;-78
2023/12/15 00:02:52;;;;;;;17.50;9.02;;;6.50;99.90;;;;;;5029746;28;20133;-78
2023/12/15 00:05:18;;;;;;;18.80;9.63;;;6.50;99.90;;;;;;5013792;28;20092;-78
2023/12/15 00:07:44;;;;;;;18.13;10.25;;;6.50;99.90;;;;;;5030718;28;20405;-78
2023/12/15 00:10:09;;;;;;;19.90;10.73;;;6.50;99.90;;;;;;5015531;28;20428;-78
2023/12/15 00:12:35;;;;;;;18.90;10.77;;;6.50;99.90;;;;;;5028427;28;20432;-78
2023/12/15 00:15:03;;;;;;;21.30;11.85;;;6.40;99.90;;;;;;5014397;28;20041;-78
2023/12/15 00:17:28;;;;;;;18.20;10.82;;;6.40;99.90;;;;;;5015089;28;20081;-78
2023/12/15 00:19:54;;;;;;;18.10;10.65;;;6.40;99.90;;;;;;5031618;28;20076;-78
2023/12/15 00:22:19;;;;;;;19.45;10.23;;;6.40;99.90;;;;;;5030428;28;20045;-78
2023/12/15 00:24:45;;;;;;;20.00;11.18;;;6.40;99.90;;;;;;5013466;28;20037;-78
2023/12/15 00:27:11;;;;;;;19.33;10.65;;;6.50;99.90;;;;;;5015332;28;20060;-78
2023/12/15 00:29:36;;;;;;;20.45;11.90;;;6.50;99.90;;;;;;5015322;28;20080;-78
2023/12/15 00:32:02;;;;;;;20.85;10.52;;;6.40;99.90;;;;;;5029501;28;20044;-77
2023/12/15 00:34:28;;;;;;;18.70;11.25;;;6.40;99.90;;;;;;5031586;28;20041;-78
2023/12/15 00:36:53;;;;;;;19.48;11.65;;;6.50;99.90;;;;;;5031448;28;20087;-78
2023/12/15 00:39:19;;;;;;;20.52;10.52;;;6.40;99.90;;;;;;5030563;28;20116;-78
2023/12/15 00:41:45;;;;;;;23.05;12.68;;;6.50;99.90;;;;;;5014889;28;20091;-78
2023/12/15 00:44:10;;;;;;;19.83;12.85;;;6.50;99.90;;;;;;5029047;28;20053;-78
2023/12/15 00:46:36;;;;;;;22.45;13.65;;;6.50;99.90;;;;;;5018640;28;20512;-78
2023/12/15 00:49:01;;;;;;;21.95;12.73;;;6.50;99.90;;;;;;5017908;28;20045;-78
2023/12/15 00:51:27;;;;;;;22.30;13.35;;;6.40;99.90;;;;;;5033783;28;20077;-78
2023/12/15 00:53:53;;;;;;;22.17;12.90;;;6.50;99.90;;;;;;5032391;28;20083;-78
2023/12/15 00:56:18;;;;;;;22.80;13.13;;;6.50;99.90;;;;;;5034941;28;20042;-78
2023/12/15 00:58:44;;;;;;;21.77;14.18;;;6.40;99.90;;;;;;5017403;28;20057;-78
2023/12/15 01:01:10;;;;;;;23.40;14.43;;;6.40;99.90;;;;;;5033242;28;20060;-78
2023/12/15 01:03:35;;;;;;;22.63;14.02;;;6.50;99.90;;;;;;5048222;28;20124;-78
2023/12/15 01:06:01;;;;;;;21.95;13.73;;;6.50;99.90;;;;;;5018279;28;20125;-78
2023/12/15 01:08:26;;;;;;;23.27;13.25;;;6.50;99.90;;;;;;5033052;28;20033;-78
2023/12/15 01:10:52;;;;;;;23.17;12.27;;;6.50;99.90;;;;;;5017769;28;20474;-78
2023/12/15 01:13:18;;;;;;;22.95;14.85;;;6.50;99.90;;;;;;5017501;28;20049;-78
2023/12/15 01:15:43;;;;;;;26.33;13.52;;;6.50;99.90;;;;;;5034471;28;20474;-78
2023/12/15 01:18:09;;;;;;;26.63;15.85;;;6.60;99.90;;;;;;5034490;28;20051;-78
2023/12/15 01:20:34;;;;;;;24.65;13.70;;;6.50;99.90;;;;;;5017642;28;20049;-78
2023/12/15 01:23:00;;;;;;;22.42;14.43;;;6.50;99.90;;;;;;5032593;28;20482;-78
2023/12/15 01:25:26;;;;;;;31.67;17.58;;;6.50;99.90;;;;;;5034364;28;20120;-78
2023/12/15 01:27:51;;;;;;;24.85;16.02;;;6.50;99.90;;;;;;5034376;28;20049;-78
2023/12/15 01:30:17;;;;;;;28.95;13.75;;;6.40;99.90;;;;;;5016210;28;20394;-78
2023/12/15 01:32:43;;;;;;;24.63;14.95;;;6.60;99.90;;;;;;5033133;28;20463;-78
2023/12/15 01:35:08;;;;;;;27.38;16.23;;;6.70;99.90;;;;;;5016879;28;20048;-78
2023/12/15 01:37:34;;;;;;;25.30;14.75;;;6.60;99.90;;;;;;5017945;28;20041;-78
2023/12/15 01:40:00;;;;;;;23.77;13.63;;;6.60;99.90;;;;;;5033046;28;20478;-78
2023/12/15 01:42:26;;;;;;;26.15;15.57;;;6.60;99.90;;;;;;5032925;28;20116;-78
2023/12/15 01:44:52;;;;;;;26.95;14.85;;;6.60;99.90;;;;;;5004654;28;20034;-78
2023/12/15 01:47:18;;;;;;;26.83;16.63;;;6.70;99.90;;;;;;4997976;28;20044;-78
2023/12/15 01:49:46;;;;;;;28.38;16.70;;;6.70;99.90;;;;;;5024073;28;20405;-78
2023/12/15 01:52:12;;;;;;;28.60;15.77;;;6.70;99.90;;;;;;5016525;28;20478;-78
2023/12/15 01:54:37;;;;;;;30.30;16.20;;;6.70;99.90;;;;;;5032932;28;20041;-78
2023/12/15 01:57:03;;;;;;;29.20;16.58;;;6.70;99.90;;;;;;5033768;28;20091;-78
2023/12/15 01:59:49;;;;;;;26.90;15.45;;;6.70;99.90;;;;;;5050138;28;20058;-77
2023/12/15 02:02:18;;;;;;;35.47;18.33;;;6.70;99.90;;;;;;5033597;28;20042;-78
2023/12/15 02:04:44;;;;;;;27.75;15.45;;;6.80;99.90;;;;;;5031509;28;20049;-78
2023/12/15 02:07:10;;;;;;;30.20;17.02;;;6.80;99.90;;;;;;5033709;28;20038;-78
2023/12/15 02:09:37;;;;;;;30.52;16.80;;;6.90;99.90;;;;;;5033505;28;20116;-78
2023/12/15 02:12:03;;;;;;;31.17;18.77;;;6.80;99.90;;;;;;5050197;28;20095;-78
2023/12/15 02:14:29;;;;;;;29.02;17.45;;;6.70;99.90;;;;;;5031488;28;20049;-78
2023/12/15 02:16:55;;;;;;;32.08;18.33;;;6.80;99.90;;;;;;5050448;28;20559;-78
2023/12/15 02:19:20;;;;;;;32.47;18.38;;;6.80;99.90;;;;;;5016950;28;20579;-78
2023/12/15 02:21:46;;;;;;;34.30;18.70;;;6.80;99.90;;;;;;5033552;28;20379;-78
2023/12/15 02:24:12;;;;;;;27.52;15.05;;;6.70;99.90;;;;;;5045912;28;20049;-78
2023/12/15 02:26:38;;;;;;;30.23;19.55;;;6.80;99.90;;;;;;5016680;28;20406;-78
2023/12/15 02:29:03;;;;;;;32.85;18.35;;;6.80;99.90;;;;;;5016628;28;20037;-79
2023/12/15 02:31:29;;;;;;;35.17;20.00;;;6.80;99.90;;;;;;5015879;28;20038;-79
2023/12/15 02:33:54;;;;;;;35.08;19.08;;;6.70;99.90;;;;;;5014707;28;20040;-78
2023/12/15 02:36:21;;;;;;;38.80;19.00;;;6.70;99.90;;;;;;5016668;28;20391;-78
2023/12/15 02:38:47;;;;;;;32.33;17.60;;;6.80;99.90;;;;;;5016488;28;20041;-78
2023/12/15 02:41:13;;;;;;;37.55;19.42;;;6.80;99.90;;;;;;5016557;28;20041;-78
2023/12/15 02:43:39;;;;;;;31.63;18.67;;;6.70;99.90;;;;;;5015395;28;20045;-78
2023/12/15 02:46:06;;;;;;;33.00;18.98;;;6.80;99.90;;;;;;5029997;28;20061;-78
2023/12/15 02:48:32;;;;;;;34.22;18.00;;;6.90;99.90;;;;;;5015690;28;20124;-78
2023/12/15 02:50:58;;;;;;;32.83;18.58;;;6.80;99.90;;;;;;5032741;28;20128;-78
2023/12/15 02:53:24;;;;;;;32.67;19.17;;;7.00;99.90;;;;;;5048797;28;20478;-78
2023/12/15 02:55:49;;;;;;;35.25;19.08;;;6.90;99.90;;;;;;5014150;28;20080;-78
2023/12/15 02:58:17;;;;;;;32.13;18.55;;;6.90;99.90;;;;;;5032667;28;20136;-78
2023/12/15 03:00:42;;;;;;;33.20;18.30;;;6.90;99.90;;;;;;5016100;28;20508;-78
2023/12/15 03:03:08;;;;;;;35.65;20.85;;;6.90;99.90;;;;;;5015360;28;20120;-78
2023/12/15 03:05:35;;;;;;;36.90;19.50;;;6.90;99.90;;;;;;5046435;28;20378;-78
2023/12/15 03:08:01;;;;;;;33.05;20.20;;;6.90;99.90;;;;;;5015550;28;20543;-78
2023/12/15 03:10:27;;;;;;;34.67;18.33;;;6.90;99.90;;;;;;5015119;28;20041;-78
2023/12/15 03:12:52;;;;;;;33.35;18.13;;;6.90;99.90;;;;;;5032396;28;20060;-78
2023/12/15 03:15:18;;;;;;;37.88;19.23;;;6.80;99.90;;;;;;5013778;28;20033;-78
2023/12/15 03:17:43;;;;;;;32.83;18.42;;;6.80;99.90;;;;;;5015830;28;20041;-78
2023/12/15 03:20:09;;;;;;;36.78;18.45;;;6.90;99.90;;;;;;5015845;28;20033;-78
2023/12/15 03:22:36;;;;;;;32.35;19.23;;;6.90;99.90;;;;;;5032022;28;20402;-78
2023/12/15 03:25:03;;;;;;;34.53;19.63;;;7.00;99.90;;;;;;5030465;28;20087;-78
2023/12/15 03:27:29;;;;;;;38.13;20.38;;;6.90;99.90;;;;;;5047678;28;20041;-78
2023/12/15 03:29:54;;;;;;;35.80;19.25;;;6.90;99.90;;;;;;5032190;28;20038;-78
2023/12/15 03:32:20;;;;;;;30.90;17.70;;;7.00;99.90;;;;;;5032132;28;20045;-78
2023/12/15 03:34:46;;;;;;;29.13;17.17;;;7.00;99.90;;;;;;5014903;28;20034;-78
2023/12/15 03:37:11;;;;;;;37.40;19.52;;;7.00;99.90;;;;;;5030287;28;20470;-78
2023/12/15 03:39:37;;;;;;;35.63;18.95;;;7.00;99.90;;;;;;5032267;28;20429;-78
2023/12/15 03:42:06;;;;;;;31.02;18.23;;;6.90;99.90;;;;;;5031083;28;20511;-78
2023/12/15 03:44:41;;;;;;;34.10;18.42;;;6.90;99.90;;;;;;5030724;28;20477;-78
2023/12/15 03:47:08;;;;;;;35.22;18.58;;;6.90;99.90;;;;;;5026854;28;20036;-78
2023/12/15 03:49:34;;;;;;;32.00;18.48;;;6.90;99.90;;;;;;5045006;28;20040;-78
2023/12/15 03:52:00;;;;;;;37.45;19.45;;;6.90;99.90;;;;;;5031835;28;20549;-78
2023/12/15 03:54:26;;;;;;;28.90;16.58;;;6.90;99.90;;;;;;5014577;28;20133;-78
2023/12/15 03:56:58;;;;;;;31.27;17.65;;;6.90;99.90;;;;;;5014549;28;20049;-78
2023/12/15 03:59:24;;;;;;;31.30;17.65;;;6.90;99.90;;;;;;5015130;28;20060;-78
2023/12/15 04:01:50;;;;;;;28.58;16.70;;;7.00;99.90;;;;;;5030955;28;20404;-77
2023/12/15 04:04:17;;;;;;;29.95;15.40;;;7.00;99.90;;;;;;5030628;28;20124;-77
2023/12/15 04:06:43;;;;;;;28.42;15.73;;;7.00;99.90;;;;;;5015265;28;20094;-78
2023/12/15 04:09:09;;;;;;;30.45;16.67;;;7.00;99.90;;;;;;5014266;28;20112;-78
2023/12/15 04:11:36;;;;;;;28.90;15.77;;;6.90;99.90;;;;;;5015542;28;20405;-78
2023/12/15 04:14:02;;;;;;;29.70;15.15;;;7.00;99.90;;;;;;5030919;28;20402;-78
2023/12/15 04:16:28;;;;;;;27.55;16.77;;;7.00;99.90;;;;;;5015180;28;20172;-78
2023/12/15 04:18:53;;;;;;;29.33;15.45;;;6.90;99.90;;;;;;5029565;28;20120;-78
2023/12/15 04:21:19;;;;;;;29.00;15.95;;;6.90;99.90;;;;;;5035884;28;20430;-78
2023/12/15 04:23:45;;;;;;;31.08;16.08;;;6.90;99.90;;;;;;5017933;28;20077;-78
2023/12/15 04:26:10;;;;;;;29.30;16.20;;;6.90;99.90;;;;;;5019004;28;20069;-78
2023/12/15 04:28:44;;;;;;;26.88;16.00;;;6.90;99.90;;;;;;5017979;28;20115;-78
2023/12/15 04:31:16;;;;;;;33.42;16.20;;;7.00;99.90;;;;;;5011481;28;20069;-77
2023/12/15 04:33:41;;;;;;;30.02;15.23;;;6.90;99.90;;;;;;5049140;28;20040;-77
2023/12/15 04:36:13;;;;;;;25.90;12.60;;;6.90;99.90;;;;;;5024350;28;20497;-78
2023/12/15 04:38:39;;;;;;;27.08;15.65;;;7.00;99.90;;;;;;5021478;28;20044;-78
2023/12/15 04:41:05;;;;;;;30.02;15.80;;;7.00;99.90;;;;;;5018664;28;20045;-78
2023/12/15 04:43:30;;;;;;;23.63;14.52;;;6.90;99.90;;;;;;5034213;28;20406;-78
2023/12/15 04:45:56;;;;;;;27.42;15.10;;;7.00;99.90;;;;;;5037502;28;20055;-78
2023/12/15 04:48:22;;;;;;;31.10;15.35;;;7.00;99.90;;;;;;5038437;28;20469;-77
2023/12/15 04:50:49;;;;;;;29.48;14.98;;;7.00;99.90;;;;;;5038366;28;20036;-78
2023/12/15 04:53:15;;;;;;;31.13;16.02;;;7.00;99.90;;;;;;5039653;28;20086;-78
2023/12/15 04:55:40;;;;;;;30.25;15.57;;;7.00;99.90;;;;;;5034862;28;20494;-78
2023/12/15 04:58:07;;;;;;;30.35;16.15;;;7.00;99.90;;;;;;4998751;28;20379;-78
2023/12/15 05:00:32;;;;;;;29.35;16.70;;;7.00;99.90;;;;;;5031318;28;20053;-78
2023/12/15 05:02:58;;;;;;;32.75;16.55;;;6.90;99.90;;;;;;5050212;28;20052;-78
2023/12/15 05:05:23;;;;;;;32.00;15.50;;;6.90;99.90;;;;;;5051547;28;20034;-78
2023/12/15 05:07:49;;;;;;;25.02;12.85;;;6.90;99.90;;;;;;5034929;28;20175;-78
2023/12/15 05:10:15;;;;;;;29.10;16.50;;;6.90;99.90;;;;;;5034897;28;20076;-78
2023/12/15 05:12:40;;;;;;;30.20;15.07;;;7.00;99.90;;;;;;5050254;28;20048;-78
2023/12/15 05:15:06;;;;;;;31.95;14.80;;;6.90;99.90;;;;;;5017744;28;20553;-78
2023/12/15 05:17:32;;;;;;;29.95;15.13;;;6.90;99.90;;;;;;5034832;28;20103;-78
2023/12/15 05:19:58;;;;;;;29.65;15.30;;;6.90;99.90;;;;;;5038373;28;20080;-78
2023/12/15 05:22:24;;;;;;;28.10;13.98;;;6.90;99.90;;;;;;5027181;28;20500;-77
2023/12/15 05:24:51;;;;;;;29.98;15.45;;;6.90;99.90;;;;;;5034376;28;20041;-77
2023/12/15 05:27:17;;;;;;;26.35;14.55;;;6.90;99.90;;;;;;5017849;28;20073;-77
2023/12/15 05:29:46;;;;;;;25.95;13.52;;;6.90;99.90;;;;;;5017633;28;20132;-78
2023/12/15 05:32:16;;;;;;;29.63;14.05;;;7.00;99.90;;;;;;5033475;28;20049;-78
2023/12/15 05:34:42;;;;;;;25.42;11.38;;;7.00;99.90;;;;;;4998173;28;20030;-78
2023/12/15 05:37:08;;;;;;;30.33;15.07;;;6.90;99.90;;;;;;5019992;28;20034;-78
2023/12/15 05:39:34;;;;;;;23.05;11.98;;;6.90;99.90;;;;;;5017694;28;20038;-78
2023/12/15 05:41:59;;;;;;;23.80;12.82;;;6.90;99.90;;;;;;5034054;28;20041;-78
2023/12/15 05:44:25;;;;;;;24.38;12.73;;;6.90;99.90;;;;;;5016369;28;20116;-78
2023/12/15 05:46:51;;;;;;;24.90;12.73;;;6.90;99.90;;;;;;5017531;28;20037;-78
2023/12/15 05:49:16;;;;;;;25.55;12.35;;;6.80;99.90;;;;;;5033969;28;20069;-78
2023/12/15 05:51:48;;;;;;;26.08;12.82;;;6.80;99.90;;;;;;5033895;28;20077;-78
2023/12/15 05:54:14;;;;;;;;;;;6.70;99.90;;;;;;5039294;28;20153;-78
2023/12/15 05:56:40;;;;;;;24.58;12.15;;;6.70;99.90;;;;;;5037043;28;19960;-78
2023/12/15 05:59:05;;;;;;;23.55;11.57;;;6.60;99.90;;;;;;5053531;28;20390;-78
2023/12/15 06:01:31;;;;;;;20.95;11.30;;;6.60;99.90;;;;;;5037108;28;20485;-77
2023/12/15 06:03:57;;;;;;;23.92;11.18;;;6.60;99.90;;;;;;5043175;28;20079;-78
2023/12/15 06:06:23;;;;;;;20.55;11.35;;;6.60;99.90;;;;;;5033553;28;20071;-78
2023/12/15 06:08:48;;;;;;;20.63;10.93;;;6.50;99.90;;;;;;5033829;28;20489;-77
2023/12/15 06:11:14;;;;;;;21.63;10.52;;;6.50;99.90;;;;;;5034015;28;20547;-77
2023/12/15 06:13:41;;;;;;;24.63;11.65;;;6.50;99.90;;;;;;5032349;28;20063;-77
2023/12/15 06:16:07;;;;;;;28.10;12.18;;;6.40;99.90;;;;;;5033343;28;20418;-77
2023/12/15 06:18:33;;;;;;;23.42;11.65;;;6.40;99.90;;;;;;5016884;28;20045;-77
2023/12/15 06:20:59;;;;;;;17.92;10.50;;;6.30;99.90;;;;;;5016893;28;20044;-77
2023/12/15 06:23:25;;;;;;;22.52;11.40;;;6.40;99.90;;;;;;5033407;28;20391;-77
2023/12/15 06:25:50;;;;;;;21.67;9.73;;;6.40;99.90;;;;;;5015834;28;20048;-77
2023/12/15 06:28:16;;;;;;;21.67;10.02;;;6.50;99.90;;;;;;5022875;28;20032;-78
2023/12/15 06:30:42;;;;;;;19.95;8.77;;;6.60;99.90;;;;;;5053341;28;20044;-77
2023/12/15 06:33:08;;;;;;;19.15;10.63;;;6.60;99.90;;;;;;5045380;28;20041;-78
2023/12/15 06:35:34;;;;;;;22.02;10.20;;;6.60;99.90;;;;;;5048642;28;20096;-77
2023/12/15 06:38:00;;;;;;;21.35;9.95;;;6.50;99.90;;;;;;5032977;28;20041;-77
2023/12/15 06:40:25;;;;;;;20.95;9.55;;;6.60;99.90;;;;;;5032936;28;20037;-77
2023/12/15 06:42:51;;;;;;;21.73;10.02;;;6.50;99.90;;;;;;5009510;28;20449;-77
2023/12/15 06:45:16;;;;;;;26.23;10.63;;;6.60;99.90;;;;;;5032346;28;20072;-77
2023/12/15 06:47:42;;;;;;;26.90;12.57;;;6.60;99.90;;;;;;5034439;28;20041;-77
2023/12/15 06:50:08;;;;;;;20.75;9.82;;;6.60;99.90;;;;;;5032884;28;20041;-77
2023/12/15 06:52:35;;;;;;;20.13;10.40;;;6.60;99.90;;;;;;5032742;28;20083;-77
2023/12/15 06:55:02;;;;;;;26.45;11.30;;;6.50;99.90;;;;;;5030507;28;20048;-77
2023/12/15 06:57:28;;;;;;;21.05;10.57;;;6.40;99.90;;;;;;5016373;28;20402;-77
2023/12/15 06:59:53;;;;;;;18.92;10.10;;;6.40;99.90;;;;;;5032470;28;20053;-77
2023/12/15 07:02:19;;;;;;;25.27;10.50;;;6.50;99.90;;;;;;5022827;28;20100;-77
2023/12/15 07:04:45;;;;;;;19.20;9.57;;;6.40;99.90;;;;;;5035879;28;20033;-77
2023/12/15 07:07:11;;;;;;;19.70;9.40;;;6.40;99.90;;;;;;5016325;28;20121;-77
2023/12/15 07:09:37;;;;;;;22.02;8.75;;;6.50;99.90;;;;;;5016305;28;20037;-77
2023/12/15 07:12:03;;;;;;;21.40;9.38;;;6.60;99.90;;;;;;5015965;28;20039;-77
2023/12/15 07:14:31;;;;;;;21.63;10.95;;;6.60;99.90;;;;;;5015910;28;20044;-77
2023/12/15 07:16:56;;;;;;;18.63;10.23;;;6.40;99.90;;;;;;5014800;28;20049;-77
2023/12/15 07:19:22;;;;;;;25.25;10.93;;;6.40;99.90;;;;;;5032197;28;20132;-77
2023/12/15 07:21:48;;;;;;;19.05;9.57;;;6.40;99.90;;;;;;5032239;28;20128;-77
2023/12/15 07:24:13;;;;;;;24.85;10.35;;;6.30;99.90;;;;;;5015659;28;20128;-77
2023/12/15 07:26:39;;;;;;;21.60;10.50;;;6.30;99.90;;;;;;5031024;28;20438;-77
2023/12/15 07:29:06;;;;;;;24.33;10.75;;;6.20;99.90;;;;;;5032489;28;20041;-77
2023/12/15 07:31:31;;;;;;;22.60;9.07;;;6.20;99.90;;;;;;5032359;28;20367;-77
2023/12/15 07:33:57;;;;;;;20.88;9.55;;;6.20;99.90;;;;;;5015526;28;20091;-77
2023/12/15 07:36:22;;;;;;;21.35;10.07;;;6.30;99.90;;;;;;5018224;28;20094;-77
2023/12/15 07:38:49;;;;;;;22.92;10.15;;;6.30;99.90;;;;;;5031932;28;20387;-77
2023/12/15 07:41:14;;;;;;;25.85;10.93;;;6.20;99.90;;;;;;5015572;28;20045;-77
2023/12/15 07:43:40;;;;;;;23.48;9.20;;;6.30;99.90;;;;;;5032831;28;20056;-77
2023/12/15 07:46:18;;;;;;;21.80;9.68;;;6.30;99.90;;;;;;5031749;28;20383;-77
2023/12/15 07:48:44;;;;;;;22.90;9.95;;;6.40;99.90;;;;;;5021641;28;20465;-77
2023/12/15 07:51:20;;;;;;;20.90;9.88;;;6.20;99.90;;;;;;4998712;28;20064;-77
2023/12/15 07:53:47;;;;;;;25.65;10.20;;;6.30;99.90;;;;;;5011161;28;20038;-77
2023/12/15 07:56:26;;;;;;;25.65;11.35;;;6.30;99.90;;;;;;5018061;28;20095;-77
2023/12/15 07:58:53;;;;;;;20.90;10.25;;;6.20;99.90;;;;;;5022157;28;20072;-77
2023/12/15 08:01:20;;;;;;;20.50;10.30;;;6.10;99.90;;;;;;5014380;28;20405;-77
2023/12/15 08:03:46;;;;;;;21.48;11.02;;;6.20;99.90;;;;;;5041131;28;20056;-77
2023/12/15 08:06:13;;;;;;;21.45;10.32;;;6.10;99.90;;;;;;5009352;28;20030;-77
2023/12/15 08:08:43;;;;;;;20.70;8.93;;;6.10;99.90;;;;;;5017110;28;20045;-77
2023/12/15 08:11:10;;;;;;;18.88;9.05;;;6.10;99.90;;;;;;5034605;28;20068;-77
2023/12/15 08:13:36;;;;;;;21.45;9.13;;;6.10;99.90;;;;;;5021169;28;20040;-77
2023/12/15 08:16:03;;;;;;;23.33;8.45;;;6.10;99.90;;;;;;5020140;28;20049;-77
2023/12/15 08:18:29;;;;;;;21.60;8.90;;;6.10;99.90;;;;;;5030389;28;20037;-77
2023/12/15 08:20:55;;;;;;;23.83;8.68;;;6.10;99.90;;;;;;5029437;28;20041;-77
2023/12/15 08:23:20;;;;;;;24.17;9.15;;;6.10;99.90;;;;;;5028266;28;20044;-77
2023/12/15 08:25:46;;;;;;;23.35;8.52;;;6.10;99.90;;;;;;5027420;28;20402;-77
2023/12/15 08:28:12;;;;;;;21.08;8.90;;;6.10;99.90;;;;;;5030239;28;20056;-77
2023/12/15 08:30:38;;;;;;;18.17;7.82;;;6.10;99.90;;;;;;5029088;28;20041;-77
2023/12/15 08:33:04;;;;;;;24.80;8.88;;;6.20;99.90;;;;;;5029902;28;20084;-77
2023/12/15 08:35:30;;;;;;;20.67;8.82;;;6.30;99.90;;;;;;5011561;28;20068;-77
2023/12/15 08:37:56;;;;;;;23.35;8.40;;;6.30;99.90;;;;;;5027946;28;20069;-77
2023/12/15 08:40:22;;;;;;;20.63;7.88;;;6.40;99.90;;;;;;5012688;28;20107;-77
2023/12/15 08:42:48;;;;;;;17.30;8.25;;;6.40;99.90;;;;;;5030118;28;20445;-77
2023/12/15 08:45:14;;;;;;;28.05;9.02;;;6.50;99.90;;;;;;5013414;28;20050;-77
2023/12/15 08:47:39;;;;;;;23.77;7.75;;;6.60;99.90;;;;;;5013169;28;20434;-77
2023/12/15 08:50:05;;;;;;;22.13;8.23;;;6.60;99.90;;;;;;5026392;28;20387;-77
2023/12/15 08:52:31;;;;;;;20.77;7.60;;;6.50;99.90;;;;;;5028819;28;20116;-77
2023/12/15 08:54:57;;;;;;;24.20;8.63;;;6.60;99.90;;;;;;5009973;28;20244;-77
2023/12/15 08:57:22;;;;;;;20.90;7.95;;;6.60;99.90;;;;;;5013115;28;20045;-77
2023/12/15 08:59:48;;;;;;;24.63;7.95;;;6.60;99.90;;;;;;5030778;28;20053;-78
2023/12/15 09:02:14;;;;;;;20.00;8.40;;;6.60;99.90;;;;;;5013683;28;20409;-77
2023/12/15 09:04:40;;;;;;;21.40;7.90;;;6.70;99.90;;;;;;5013419;28;20041;-77
2023/12/15 09:07:08;;;;;;;22.83;8.23;;;6.70;99.90;;;;;;5018006;28;20038;-77
2023/12/15 09:09:38;;;;;;;23.15;8.13;;;6.80;99.90;;;;;;5017888;28;20037;-77
2023/12/15 09:12:05;;;;;;;19.23;6.63;;;6.80;99.90;;;;;;5033519;28;20037;-77
2023/12/15 09:14:32;;;;;;;23.13;7.93;;;6.90;99.90;;;;;;5032243;28;20033;-77
2023/12/15 09:16:58;;;;;;;24.63;7.28;;;6.80;99.90;;;;;;5033409;28;20056;-77
2023/12/15 09:19:25;;;;;;;25.52;7.97;;;6.90;99.90;;;;;;5015541;28;20056;-77
2023/12/15 09:21:52;;;;;;;21.25;7.55;;;6.80;99.90;;;;;;5032226;28;20045;-77
2023/12/15 09:24:18;;;;;;;21.75;7.30;;;6.80;99.90;;;;;;5033791;28;20046;-77
2023/12/15 09:26:45;;;;;;;27.20;9.00;;;6.80;99.90;;;;;;5032917;28;20079;-77
2023/12/15 09:29:12;;;;;;;23.10;8.30;;;6.80;99.90;;;;;;5033571;28;20037;-77
2023/12/15 09:31:38;;;;;;;25.17;7.63;;;6.80;99.90;;;;;;5033546;28;20389;-77
2023/12/15 09:34:04;;;;;;;29.17;8.02;;;6.80;99.90;;;;;;5031045;28;20038;-77
2023/12/15 09:36:30;;;;;;;19.60;7.53;;;6.90;99.90;;;;;;5032782;28;20044;-77
2023/12/15 09:38:56;;;;;;;23.33;7.65;;;6.90;99.90;;;;;;5017103;28;20041;-77
2023/12/15 09:41:22;;;;;;;23.00;8.15;;;6.90;99.90;;;;;;5034166;28;20042;-77
2023/12/15 09:43:48;;;;;;;28.23;6.43;;;6.90;99.90;;;;;;5031504;28;20093;-77
2023/12/15 09:46:14;;;;;;;20.35;6.05;;;7.00;99.90;;;;;;5031852;28;20041;-77
2023/12/15 09:48:40;;;;;;;18.15;6.38;;;7.00;99.90;;;;;;5033937;28;20052;-77
2023/12/15 09:51:24;;;;;;;23.70;7.30;;;7.00;99.90;;;;;;5003613;28;20069;-77
2023/12/15 09:53:50;;;;;;;26.70;7.40;;;7.10;99.90;;;;;;5019214;28;20042;-77
2023/12/15 09:56:16;;;;;;;22.65;7.53;;;7.10;99.90;;;;;;5016283;28;20037;-77
2023/12/15 09:58:42;;;;;;;23.30;7.40;;;7.10;99.90;;;;;;5015422;28;20383;-77
2023/12/15 10:01:10;;;;;;;25.90;7.60;;;7.20;99.90;;;;;;5031535;28;20091;-77
2023/12/15 10:03:35;;;;;;;22.63;7.28;;;7.20;99.90;;;;;;5014519;28;20034;-77
2023/12/15 10:06:01;;;;;;;26.25;7.03;;;7.30;99.90;;;;;;5014685;28;20486;-77
2023/12/15 10:08:42;;;;;;;23.25;6.13;;;7.30;99.90;;;;;;5001702;28;20044;-77
2023/12/15 10:11:08;;;;;;;24.13;6.60;;;7.30;99.90;;;;;;5026623;28;20030;-77
2023/12/15 10:13:33;;;;;;;29.95;7.53;;;7.30;99.90;;;;;;5016136;28;20048;-77
2023/12/15 10:15:59;;;;;;;19.58;6.65;;;7.30;99.90;;;;;;5026843;28;20033;-77
2023/12/15 10:18:25;;;;;;;27.63;5.75;;;7.40;99.90;;;;;;5009483;28;20041;-77
2023/12/15 10:20:50;;;;;;;25.50;7.10;;;7.40;99.90;;;;;;5015865;28;20037;-77
2023/12/15 10:23:29;;;;;;;23.33;6.95;;;7.40;99.90;;;;;;5014254;28;20076;-77
2023/12/15 10:25:57;;;;;;;26.98;6.43;;;7.40;99.90;;;;;;5015164;28;20084;-77
2023/12/15 10:28:23;;;;;;;22.73;5.60;;;7.50;99.90;;;;;;5024934;28;20036;-77
2023/12/15 10:30:50;;;;;;;24.73;6.40;;;7.50;99.90;;;;;;5017125;28;20026;-77
2023/12/15 10:33:17;;;;;;;24.73;6.22;;;7.50;99.90;;;;;;5014472;28;20033;-77
2023/12/15 10:35:47;;;;;;;19.90;6.35;;;7.60;99.90;;;;;;5013972;28;20398;-77
2023/12/15 10:38:13;;;;;;;25.20;6.13;;;7.60;99.90;;;;;;5036961;28;20410;-77
2023/12/15 10:40:39;;;;;;;30.58;7.28;;;7.50;99.90;;;;;;5032698;28;20049;-77
2023/12/15 10:43:05;;;;;;;24.75;6.05;;;7.60;99.90;;;;;;5014882;28;20442;-77
2023/12/15 10:45:32;;;;;;;25.20;6.45;;;7.60;99.90;;;;;;5025770;28;20044;-77
2023/12/15 10:48:00;;;;;;;26.23;6.57;;;7.60;99.90;;;;;;5032249;28;20037;-77
2023/12/15 10:50:27;;;;;;;28.60;6.80;;;7.60;99.90;;;;;;5015569;28;20037;-77
2023/12/15 10:52:55;;;;;;;19.67;5.30;;;7.60;99.90;;;;;;5032930;28;20048;-77
2023/12/15 10:55:23;;;;;;;27.00;6.43;;;7.60;99.90;;;;;;5029752;28;20119;-78
2023/12/15 10:57:49;;;;;;;32.63;5.35;;;7.60;99.90;;;;;;5028737;28;20398;-77
2023/12/15 11:00:18;;;;;;;24.42;6.03;;;7.70;99.90;;;;;;5013021;28;20053;-77
2023/12/15 11:02:46;;;;;;;24.98;5.57;;;7.70;99.90;;;;;;5018771;28;20482;-77
2023/12/15 11:05:12;;;;;;;24.77;6.15;;;7.80;99.90;;;;;;5013680;28;20038;-77
2023/12/15 11:07:40;;;;;;;24.67;5.47;;;7.80;99.90;;;;;;5013253;28;20091;-77
2023/12/15 11:10:09;;;;;;;26.85;5.70;;;7.80;99.90;;;;;;5025690;28;20045;-77
2023/12/15 11:12:41;;;;;;;29.65;6.75;;;7.90;99.90;;;;;;5030709;28;20057;-77
2023/12/15 11:15:12;;;;;;;27.17;6.60;;;7.90;99.90;;;;;;5027367;28;20044;-77
2023/12/15 11:17:43;;;;;;;25.17;5.43;;;7.90;99.90;;;;;;5031323;28;20041;-77
2023/12/15 11:20:33;;;;;;;25.58;5.60;;;7.90;99.90;;;;;;5030222;28;20056;-77
2023/12/15 11:23:07;;;;;;;23.20;5.65;;;7.90;99.90;;;;;;5014262;28;20041;-77
2023/12/15 11:25:34;;;;;;;25.20;5.38;;;7.90;99.90;;;;;;5032282;28;20045;-77
2023/12/15 11:28:08;;;;;;;19.48;4.82;;;7.90;99.90;;;;;;5031395;28;20038;-77
2023/12/15 11:30:52;;;;;;;27.33;6.05;;;8.00;99.90;;;;;;5015308;28;20079;-77
2023/12/15 11:33:24;;;;;;;27.55;6.25;;;8.00;99.90;;;;;;5032184;28;20544;-77
2023/12/15 11:35:53;;;;;;;27.25;6.30;;;7.90;99.90;;;;;;5015600;28;20045;-77
2023/12/15 11:38:22;;;;;;;21.63;4.50;;;8.00;99.90;;;;;;5015399;28;20555;-77
2023/12/15 11:40:48;;;;;;;34.38;6.45;;;7.90;99.90;;;;;;5015129;28;20049;-77
2023/12/15 11:43:14;;;;;;;30.92;6.07;;;8.00;99.90;;;;;;5015506;28;20046;-77
2023/12/15 11:45:43;;;;;;;21.85;5.43;;;8.00;99.90;;;;;;5031579;28;20048;-77
2023/12/15 11:48:09;;;;;;;21.98;4.78;;;8.00;99.90;;;;;;5031771;28;20518;-77
2023/12/15 11:50:35;;;;;;;23.33;5.18;;;8.10;99.90;;;;;;5031434;28;20121;-77
2023/12/15 11:53:06;;;;;;;25.30;5.95;;;8.10;99.90;;;;;;5032041;28;20063;-77
2023/12/15 11:55:31;;;;;;;23.73;5.18;;;8.10;99.90;;;;;;5031446;28;20076;-77
2023/12/15 11:57:57;;;;;;;25.40;5.20;;;8.10;99.90;;;;;;5014000;28;20088;-77
2023/12/15 12:00:23;;;;;;;31.33;6.10;;;8.20;99.90;;;;;;4995484;28;20644;-77
2023/12/15 12:02:48;;;;;;;31.38;6.50;;;8.20;99.90;;;;;;5011492;28;20046;-77
2023/12/15 12:05:14;;;;;;;25.88;5.07;;;8.20;99.90;;;;;;5018980;28;20409;-77
2023/12/15 12:07:40;;;;;;;27.58;5.40;;;8.30;99.90;;;;;;5014885;28;20045;-77
2023/12/15 12:10:07;;;;;;;26.30;5.85;;;8.30;99.90;;;;;;5014806;28;20037;-77
2023/12/15 12:12:33;;;;;;;24.02;5.18;;;8.30;99.90;;;;;;5031943;28;20077;-77
2023/12/15 12:15:04;;;;;;;26.17;5.45;;;8.40;99.90;;;;;;5013938;28;20037;-77
2023/12/15 12:17:31;;;;;;;24.48;4.60;;;8.40;99.90;;;;;;5014506;28;20041;-77
2023/12/15 12:20:06;;;;;;;26.33;5.30;;;8.40;99.90;;;;;;5014888;28;20048;-77
2023/12/15 12:22:38;;;;;;;26.70;6.15;;;8.40;99.90;;;;;;5014853;28;20033;-77
2023/12/15 12:25:04;;;;;;;29.92;6.13;;;8.40;99.90;;;;;;5014792;28;20037;-77
2023/12/15 12:27:32;;;;;;;22.60;4.60;;;8.50;99.90;;;;;;5011834;28;20034;-78
2023/12/15 12:29:59;;;;;;;29.92;6.45;;;8.50;99.90;;;;;;5029292;28;20026;-78
2023/12/15 12:32:25;;;;;;;24.50;5.05;;;8.50;99.90;;;;;;5030045;28;20116;-78
2023/12/15 12:34:51;;;;;;;28.77;5.53;;;8.50;99.90;;;;;;5031448;28;20037;-78
2023/12/15 12:37:17;;;;;;;31.50;6.30;;;8.60;99.90;;;;;;5029918;28;20091;-78